Time;durP1;ratioP1;P1;durP2;ratioP2;P2;SDS_P1;SDS_P2;PMS_P1;PMS_P2;Temp;Humidity;BMP_temperature;BMP_pressure;BME280_temperature;BME280_humidity;BME280_pressure;Samples;Min_cycle;Max_cycle;Signal;HPM_P1;HPM_P2
2022/08/17 00:00:48;;;;;;;4.13;3.72;;;;;19.50;93688.00;;;;7395806;19;20125;-79
2022/08/17 00:03:40;;;;;;;4.72;4.00;;;;;19.50;93687.00;;;;7392037;19;20185;-79
2022/08/17 00:06:19;;;;;;;4.07;3.58;;;;;19.40;93680.00;;;;7396212;19;20652;-79
2022/08/17 00:08:53;;;;;;;4.45;3.53;;;;;19.20;93688.00;;;;7393038;19;20127;-80
2022/08/17 00:11:36;;;;;;;4.30;3.65;;;;;19.00;93685.00;;;;7395201;19;20125;-79
2022/08/17 00:14:16;;;;;;;5.07;3.80;;;;;18.90;93694.00;;;;7392642;19;20625;-79
2022/08/17 00:16:52;;;;;;;6.38;4.00;;;;;18.90;93700.00;;;;7394683;19;20184;-80
2022/08/17 00:19:24;;;;;;;4.65;3.83;;;;;18.80;93702.00;;;;7393576;19;20184;-78
2022/08/17 00:22:01;;;;;;;7.88;3.83;;;;;18.80;93695.00;;;;7395665;19;20647;-78
2022/08/17 00:24:49;;;;;;;5.30;3.47;;;;;18.90;93688.00;;;;7393981;19;20173;-80
2022/08/17 00:27:30;;;;;;;6.93;3.83;;;;;18.80;93683.00;;;;7390974;19;20643;-79
2022/08/17 00:29:58;;;;;;;4.68;4.25;;;;;18.60;93679.00;;;;7394288;19;20627;-78
2022/08/17 00:32:41;;;;;;;8.25;3.90;;;;;18.40;93683.00;;;;7394579;19;20131;-79
2022/08/17 00:35:28;;;;;;;4.90;4.28;;;;;18.50;93679.00;;;;7396065;19;20129;-79
2022/08/17 00:38:05;;;;;;;6.28;3.70;;;;;18.40;93677.00;;;;7392817;19;20583;-79
2022/08/17 00:40:32;;;;;;;12.10;4.05;;;;;18.40;93676.00;;;;7391668;19;20145;-79
2022/08/17 00:43:19;;;;;;;4.88;4.28;;;;;18.60;93667.00;;;;7393428;19;20128;-80
2022/08/17 00:45:59;;;;;;;6.00;3.90;;;;;18.50;93672.00;;;;7391880;19;20148;-79
2022/08/17 00:48:28;;;;;;;4.25;3.60;;;;;18.70;93667.00;;;;7393891;19;20169;-79
2022/08/17 00:51:11;;;;;;;5.75;4.07;;;;;18.70;93659.00;;;;7392427;19;20165;-80
2022/08/17 00:53:44;;;;;;;5.72;4.05;;;;;18.30;93653.00;;;;7393851;19;20132;-80
2022/08/17 00:56:27;;;;;;;7.90;3.97;;;;;18.40;93663.00;;;;7390458;19;20175;-81
2022/08/17 00:58:57;;;;;;;4.85;3.92;;;;;18.20;93668.00;;;;7395998;19;20588;-79
2022/08/17 01:01:32;;;;;;;5.53;3.78;;;;;18.10;93671.00;;;;7392171;19;20165;-80
2022/08/17 01:04:01;;;;;;;6.78;3.50;;;;;18.00;93668.00;;;;7391865;19;20208;-80
2022/08/17 01:06:30;;;;;;;5.72;3.85;;;;;18.20;93666.00;;;;7390227;19;20196;-80
2022/08/17 01:09:08;;;;;;;5.45;3.72;;;;;18.20;93658.00;;;;7394372;19;20129;-80
2022/08/17 01:11:36;;;;;;;5.15;4.10;;;;;18.20;93655.00;;;;7392008;19;20608;-80
2022/08/17 01:14:03;;;;;;;6.72;3.92;;;;;18.00;93665.00;;;;7392745;19;20489;-79
2022/08/17 01:16:38;;;;;;;5.70;3.70;;;;;17.90;93657.00;;;;7391598;19;20131;-79
2022/08/17 01:19:15;;;;;;;4.70;3.80;;;;;17.80;93656.00;;;;7394468;19;20216;-79
2022/08/17 01:22:03;;;;;;;5.20;4.20;;;;;17.80;93671.00;;;;7391070;19;20490;-79
2022/08/17 01:24:33;;;;;;;5.95;3.88;;;;;17.80;93665.00;;;;7395156;19;20144;-79
2022/08/17 01:27:18;;;;;;;7.63;4.38;;;;;17.80;93667.00;;;;7390237;19;20152;-79
2022/08/17 01:29:50;;;;;;;4.63;3.47;;;;;17.70;93670.00;;;;7395029;19;20216;-79
2022/08/17 01:32:29;;;;;;;8.68;3.70;;;;;17.80;93670.00;;;;7390309;19;20128;-80
2022/08/17 01:34:57;;;;;;;5.47;3.85;;;;;17.70;93669.00;;;;7389095;19;20467;-80
2022/08/17 01:37:33;;;;;;;5.00;3.92;;;;;17.60;93673.00;;;;7393345;19;20252;-79
2022/08/17 01:40:39;;;;;;;7.18;4.00;;;;;17.60;93668.00;;;;7391327;19;20139;-80
2022/08/17 01:43:20;;;;;;;5.55;4.28;;;;;17.60;93681.00;;;;7388990;19;20141;-80
2022/08/17 01:45:55;;;;;;;7.25;4.20;;;;;17.80;93673.00;;;;7391200;19;20215;-80
2022/08/17 01:48:33;;;;;;;8.20;3.95;;;;;17.90;93679.00;;;;7389181;19;20139;-78
2022/08/17 01:51:10;;;;;;;4.32;3.95;;;;;18.00;93679.00;;;;7392309;19;20622;-79
2022/08/17 01:53:43;;;;;;;7.75;4.00;;;;;18.00;93675.00;;;;7392059;19;20121;-79
2022/08/17 01:56:23;;;;;;;5.97;4.15;;;;;18.00;93677.00;;;;7389398;19;20156;-78
2022/08/17 01:58:53;;;;;;;5.28;4.07;;;;;18.20;93675.00;;;;7388798;19;20137;-80
2022/08/17 02:01:30;;;;;;;4.10;3.70;;;;;18.30;93671.00;;;;7391827;19;20212;-78
2022/08/17 02:03:58;;;;;;;7.38;3.83;;;;;18.30;93669.00;;;;7391050;19;20178;-79
2022/08/17 02:06:30;;;;;;;9.68;3.78;;;;;18.40;93678.00;;;;7389822;19;20160;-79
2022/08/17 02:09:23;;;;;;;7.07;4.38;;;;;18.40;93678.00;;;;7388817;19;20145;-79
2022/08/17 02:11:57;;;;;;;5.47;3.78;;;;;18.50;93668.00;;;;7391592;19;20164;-79
2022/08/17 02:14:51;;;;;;;6.68;3.78;;;;;18.80;93679.00;;;;7386931;19;20139;-80
2022/08/17 02:17:21;;;;;;;9.05;3.80;;;;;19.10;93665.00;;;;7393527;19;20618;-79
2022/08/17 02:19:56;;;;;;;5.35;4.80;;;;;19.40;93666.00;;;;7390393;19;20596;-78
2022/08/17 02:22:24;;;;;;;7.03;4.30;;;;;19.60;93670.00;;;;7391908;19;20156;-78
2022/08/17 02:24:54;;;;;;;6.55;3.78;;;;;19.80;93664.00;;;;7389106;19;20611;-78
2022/08/17 02:27:35;;;;;;;4.72;3.78;;;;;19.90;93666.00;;;;7393741;19;20148;-79
2022/08/17 02:30:12;;;;;;;4.95;3.80;;;;;19.80;93651.00;;;;7388567;19;20599;-78
2022/08/17 02:33:10;;;;;;;5.22;3.60;;;;;19.90;93663.00;;;;7389377;19;20133;-78
2022/08/17 02:35:39;;;;;;;4.53;3.70;;;;;20.00;93654.00;;;;7387260;19;20596;-79
2022/08/17 02:38:14;;;;;;;3.60;3.22;;;;;20.10;93653.00;;;;7387363;19;20635;-79
2022/08/17 02:40:44;;;;;;;5.20;3.78;;;;;20.30;93645.00;;;;7389642;19;20484;-79
2022/08/17 02:43:12;;;;;;;4.32;3.70;;;;;20.20;93646.00;;;;7391628;19;20155;-79
2022/08/17 02:45:47;;;;;;;7.43;3.65;;;;;20.20;93652.00;;;;7389499;19;20620;-79
2022/08/17 02:48:14;;;;;;;6.47;3.78;;;;;20.20;93645.00;;;;7394802;19;20245;-79
2022/08/17 02:50:58;;;;;;;4.13;3.72;;;;;20.20;93646.00;;;;7396518;19;20148;-79
2022/08/17 02:53:35;;;;;;;6.15;3.67;;;;;20.20;93651.00;;;;7397362;19;20686;-79
2022/08/17 02:56:03;;;;;;;4.53;3.42;;;;;20.40;93654.00;;;;7392972;19;20154;-78
2022/08/17 02:58:34;;;;;;;6.22;3.75;;;;;20.40;93655.00;;;;7394576;19;20129;-78
2022/08/17 03:01:09;;;;;;;8.68;4.30;;;;;20.40;93653.00;;;;7396293;19;20148;-78
2022/08/17 03:03:38;;;;;;;3.97;3.55;;;;;20.40;93666.00;;;;7393292;19;20495;-78
2022/08/17 03:06:06;;;;;;;3.85;3.42;;;;;20.50;93667.00;;;;7395475;19;20144;-79
2022/08/17 03:08:41;;;;;;;5.82;3.97;;;;;20.50;93655.00;;;;7394942;19;20141;-79
2022/08/17 03:11:09;;;;;;;5.63;3.65;;;;;20.40;93665.00;;;;7397458;19;20121;-79
2022/08/17 03:13:36;;;;;;;6.00;3.50;;;;;20.60;93671.00;;;;7394731;19;20929;-78
2022/08/17 03:16:11;;;;;;;3.63;3.22;;;;;20.60;93682.00;;;;7391595;19;20196;-79
2022/08/17 03:18:38;;;;;;;6.18;3.55;;;;;20.60;93687.00;;;;7394571;19;20179;-78
2022/08/17 03:21:07;;;;;;;8.75;4.00;;;;;20.60;93689.00;;;;7399688;19;20153;-79
2022/08/17 03:23:42;;;;;;;3.85;3.45;;;;;20.50;93694.00;;;;7395876;19;20132;-78
2022/08/17 03:26:10;;;;;;;7.72;3.30;;;;;20.50;93696.00;;;;7398482;19;20159;-79
2022/08/17 03:28:42;;;;;;;3.90;3.38;;;;;20.40;93701.00;;;;7392117;19;20232;-78
2022/08/17 03:31:20;;;;;;;5.10;3.60;;;;;20.10;93704.00;;;;7399004;19;20159;-78
2022/08/17 03:33:50;;;;;;;4.18;3.63;;;;;19.90;93712.00;;;;7394425;19;20886;-79
2022/08/17 03:36:25;;;;;;;3.80;3.40;;;;;19.40;93707.00;;;;7391470;19;20157;-80
2022/08/17 03:38:53;;;;;;;5.43;3.55;;;;;19.40;93702.00;;;;7393887;19;20143;-79
2022/08/17 03:41:21;;;;;;;5.68;3.33;;;;;19.30;93693.00;;;;7399330;19;20157;-79
2022/08/17 03:43:57;;;;;;;4.80;3.45;;;;;19.30;93703.00;;;;7394248;19;20613;-79
2022/08/17 03:58:05;;;;;;;3.42;3.13;;;;;19.40;93693.00;;;;7393270;19;20699;-79
2022/08/17 04:00:44;;;;;;;4.40;3.45;;;;;19.40;93686.00;;;;7399448;19;20136;-79
2022/08/17 04:03:12;;;;;;;6.43;3.90;;;;;19.40;93694.00;;;;7391983;19;20168;-79
2022/08/17 04:05:47;;;;;;;5.63;3.92;;;;;19.30;93695.00;;;;7397521;19;20605;-78
2022/08/17 04:08:14;;;;;;;8.73;4.20;;;;;19.30;93708.00;;;;7393007;19;20489;-79
2022/08/17 04:10:42;;;;;;;7.30;3.63;;;;;19.60;93696.00;;;;7396859;19;20186;-78
2022/08/17 04:13:16;;;;;;;6.38;3.38;;;;;19.80;93696.00;;;;7392977;19;20615;-78
2022/08/17 04:15:52;;;;;;;4.68;3.30;;;;;19.70;93699.00;;;;7394740;19;20155;-79
2022/08/17 04:18:30;;;;;;;7.38;3.85;;;;;19.70;93705.00;;;;7394218;19;20127;-79
2022/08/17 04:21:07;;;;;;;5.03;3.58;;;;;19.80;93714.00;;;;7395317;19;20492;-79
2022/08/17 04:23:43;;;;;;;6.22;3.85;;;;;19.70;93714.00;;;;7393001;19;20151;-79
2022/08/17 04:26:13;;;;;;;7.00;3.58;;;;;19.90;93710.00;;;;7393724;19;20125;-78
2022/08/17 04:29:21;;;;;;;6.78;3.80;;;;;19.80;93721.00;;;;7391799;19;20160;-79
2022/08/17 04:31:51;;;;;;;4.32;3.65;;;;;19.70;93727.00;;;;7392432;19;20169;-79
2022/08/17 04:34:28;;;;;;;4.60;3.70;;;;;19.80;93717.00;;;;7393456;19;20500;-78
2022/08/17 04:36:57;;;;;;;5.00;4.10;;;;;19.70;93725.00;;;;7392061;19;20136;-78
2022/08/17 04:39:27;;;;;;;5.78;3.95;;;;;19.70;93721.00;;;;7392468;19;20159;-79
2022/08/17 04:42:15;;;;;;;4.57;3.95;;;;;19.70;93718.00;;;;7392206;19;20125;-78
2022/08/17 04:44:48;;;;;;;7.65;3.90;;;;;19.70;93723.00;;;;7394083;19;20129;-79
2022/08/17 04:47:23;;;;;;;4.43;4.03;;;;;20.10;93728.00;;;;7389753;19;20552;-78
2022/08/17 04:49:52;;;;;;;4.57;4.00;;;;;20.10;93724.00;;;;7394435;19;20161;-78
2022/08/17 04:52:22;;;;;;;6.15;4.13;;;;;20.10;93730.00;;;;7392124;19;20200;-79
2022/08/17 04:55:10;;;;;;;4.57;4.18;;;;;20.10;93733.00;;;;7393532;19;20182;-79
2022/08/17 04:57:37;;;;;;;6.35;4.00;;;;;20.00;93729.00;;;;7394734;19;20164;-78
2022/08/17 05:00:12;;;;;;;4.78;4.03;;;;;20.10;93720.00;;;;7395409;19;20132;-77
2022/08/17 05:02:47;;;;;;;7.72;4.25;;;;;20.20;93708.00;;;;7389814;19;20600;-77
2022/08/17 05:05:28;;;;;;;6.07;3.95;;;;;20.30;93714.00;;;;7395553;19;20820;-76
2022/08/17 05:08:01;;;;;;;7.45;3.97;;;;;20.30;93723.00;;;;7389939;19;20615;-77
2022/08/17 05:10:37;;;;;;;6.95;4.78;;;;;20.00;93719.00;;;;7396989;19;20137;-78
2022/08/17 05:13:15;;;;;;;4.75;4.35;;;;;20.20;93714.00;;;;7393125;19;20187;-78
2022/08/17 05:15:52;;;;;;;4.75;4.15;;;;;20.10;93712.00;;;;7393818;19;20144;-78
2022/08/17 05:18:24;;;;;;;5.75;4.28;;;;;20.20;93707.00;;;;7392882;19;20161;-78
2022/08/17 05:20:59;;;;;;;6.05;4.25;;;;;20.30;93708.00;;;;7390786;19;20132;-78
2022/08/17 05:23:29;;;;;;;4.45;4.03;;;;;20.40;93702.00;;;;7396629;19;20129;-77
2022/08/17 05:26:13;;;;;;;4.40;3.92;;;;;20.50;93709.00;;;;7386822;19;20145;-77
2022/08/17 05:29:09;;;;;;;4.43;4.03;;;;;20.50;93715.00;;;;7391361;19;20240;-77
2022/08/17 05:31:46;;;;;;;5.78;3.90;;;;;20.70;93712.00;;;;7390573;19;20598;-76
2022/08/17 05:34:22;;;;;;;4.93;3.65;;;;;20.70;93695.00;;;;7393022;19;20140;-77
2022/08/17 05:36:49;;;;;;;4.72;3.80;;;;;21.00;93691.00;;;;7391760;19;20148;-78
2022/08/17 05:39:17;;;;;;;3.72;3.42;;;;;21.20;93693.00;;;;7393062;19;20129;-78
2022/08/17 05:41:59;;;;;;;4.35;3.95;;;;;21.30;93690.00;;;;7391138;19;20521;-78
2022/08/17 05:44:27;;;;;;;6.30;3.58;;;;;21.40;93699.00;;;;7393201;19;20605;-77
2022/08/17 05:47:04;;;;;;;3.85;3.45;;;;;21.40;93704.00;;;;7394463;19;20148;-74
2022/08/17 05:49:40;;;;;;;3.72;3.42;;;;;20.90;93707.00;;;;7393982;19;20492;-74
2022/08/17 05:52:33;;;;;;;4.07;3.70;;;;;21.20;93722.00;;;;7395631;19;20133;-75
2022/08/17 05:55:26;;;;;;;5.18;3.65;;;;;21.00;93724.00;;;;7395790;19;20631;-75
2022/08/17 05:58:12;;;;;;;7.03;4.10;;;;;20.80;93732.00;;;;7392802;19;20173;-75
2022/08/17 06:00:59;;;;;;;4.68;3.80;;;;;20.80;93738.00;;;;7395018;19;20519;-75
2022/08/17 06:04:25;;;;;;;7.18;3.70;;;;;20.80;93748.00;;;;7392167;19;20639;-75
2022/08/17 06:07:09;;;;;;;3.97;3.60;;;;;20.90;93732.00;;;;7391146;19;20153;-76
2022/08/17 06:10:07;;;;;;;3.70;3.35;;;;;21.00;93732.00;;;;7389863;19;20615;-77
2022/08/17 06:12:51;;;;;;;4.28;3.88;;;;;21.40;93731.00;;;;7392095;19;20491;-77
2022/08/17 06:15:31;;;;;;;4.10;3.10;;;;;21.60;93729.00;;;;7391730;19;20132;-76
2022/08/17 06:21:41;;;;;;;4.68;3.50;;;;;21.50;93757.00;;;;7387180;19;20590;-76
2022/08/17 06:24:43;;;;;;;4.97;3.90;;;;;21.40;93758.00;;;;7399625;19;21007;-76
2022/08/17 06:27:30;;;;;;;5.50;3.67;;;;;21.30;93758.00;;;;7398692;19;20136;-76
2022/08/17 06:30:23;;;;;;;6.82;3.97;;;;;21.30;93760.00;;;;7401629;19;20501;-76
2022/08/17 06:32:53;;;;;;;4.93;4.10;;;;;21.30;93770.00;;;;7398593;19;20144;-76
2022/08/17 06:35:47;;;;;;;4.10;3.70;;;;;21.20;93783.00;;;;7403096;19;20136;-76
2022/08/17 06:39:02;;;;;;;3.83;3.40;;;;;21.20;93769.00;;;;7402584;19;20129;-77
2022/08/17 06:41:38;;;;;;;3.63;3.33;;;;;21.20;93778.00;;;;7397204;19;20168;-76
2022/08/17 06:44:29;;;;;;;4.10;3.60;;;;;21.30;93775.00;;;;7395374;19;20153;-76
2022/08/17 06:47:23;;;;;;;4.72;3.92;;;;;21.40;93770.00;;;;7398975;19;20611;-76
2022/08/17 06:50:04;;;;;;;4.40;4.00;;;;;21.40;93770.00;;;;7398859;19;20183;-77
2022/08/17 06:52:52;;;;;;;4.35;3.95;;;;;21.40;93760.00;;;;7396932;19;20153;-76
2022/08/17 06:55:48;;;;;;;4.85;4.35;;;;;21.40;93755.00;;;;7393525;19;20129;-76
2022/08/17 06:58:26;;;;;;;7.10;4.20;;;;;21.40;93756.00;;;;7395461;19;20137;-75
2022/08/17 07:01:01;;;;;;;5.00;4.03;;;;;21.40;93746.00;;;;7400377;19;20599;-75
2022/08/17 07:03:46;;;;;;;5.90;3.92;;;;;21.50;93750.00;;;;7398544;19;20184;-77
2022/08/17 07:06:18;;;;;;;4.28;3.90;;;;;21.50;93753.00;;;;7400523;19;20152;-75
2022/08/17 07:09:28;;;;;;;6.88;4.30;;;;;21.60;93757.00;;;;7399078;19;20129;-76
2022/08/17 07:12:13;;;;;;;8.73;4.82;;;;;21.60;93762.00;;;;7399572;19;20615;-76
2022/08/17 07:14:56;;;;;;;5.20;4.25;;;;;21.70;93762.00;;;;7397526;19;20604;-75
2022/08/17 07:17:26;;;;;;;4.85;4.45;;;;;21.80;93764.00;;;;7395087;19;20161;-75
2022/08/17 07:20:21;;;;;;;5.15;4.20;;;;;21.90;93775.00;;;;7398468;19;20188;-75
2022/08/17 07:23:24;;;;;;;8.13;4.63;;;;;21.70;93784.00;;;;7397030;19;20136;-76
2022/08/17 07:26:06;;;;;;;5.75;5.05;;;;;21.60;93781.00;;;;7397600;19;20147;-75
2022/08/17 07:28:41;;;;;;;4.90;4.22;;;;;21.40;93790.00;;;;7395108;19;20148;-76
2022/08/17 07:31:29;;;;;;;8.30;4.88;;;;;21.30;93803.00;;;;7395245;19;20651;-75
2022/08/17 07:34:13;;;;;;;6.53;4.93;;;;;21.20;93804.00;;;;7398305;19;20270;-75
2022/08/17 07:37:11;;;;;;;6.20;4.75;;;;;20.90;93802.00;;;;7393790;19;20153;-76
2022/08/17 07:39:40;;;;;;;5.25;4.75;;;;;20.90;93803.00;;;;7397660;19;20144;-76
2022/08/17 07:42:34;;;;;;;5.50;5.00;;;;;20.80;93809.00;;;;7400261;19;20892;-77
2022/08/17 07:48:17;;;;;;;6.68;4.80;;;;;20.80;93808.00;;;;7396719;19;20149;-75
2022/08/17 07:50:52;;;;;;;8.60;5.00;;;;;20.70;93808.00;;;;7398743;19;20152;-75
2022/08/17 07:53:27;;;;;;;5.38;4.88;;;;;20.70;93819.00;;;;7397892;19;20471;-74
2022/08/17 07:55:57;;;;;;;5.55;5.10;;;;;20.70;93807.00;;;;7398028;19;20509;-74
2022/08/17 07:58:27;;;;;;;5.90;5.00;;;;;20.80;93806.00;;;;7395795;19;20144;-75
2022/08/17 08:01:10;;;;;;;5.85;5.13;;;;;20.80;93808.00;;;;7398149;19;20615;-75
2022/08/17 08:03:46;;;;;;;5.35;4.85;;;;;20.90;93812.00;;;;7396626;19;20168;-74
2022/08/17 08:06:26;;;;;;;5.80;5.22;;;;;20.90;93812.00;;;;7398178;19;20492;-74
2022/08/17 08:08:59;;;;;;;5.82;5.05;;;;;20.80;93812.00;;;;7398805;19;20129;-76
2022/08/17 08:11:35;;;;;;;5.22;4.72;;;;;20.70;93830.00;;;;7399770;19;20152;-75
2022/08/17 08:14:20;;;;;;;5.40;4.90;;;;;20.60;93833.00;;;;7396318;19;20155;-75
2022/08/17 08:17:05;;;;;;;5.45;4.95;;;;;20.50;93830.00;;;;7393634;19;20156;-75
2022/08/17 08:19:38;;;;;;;5.10;4.65;;;;;20.40;93838.00;;;;7395643;19;20622;-76
2022/08/17 08:22:27;;;;;;;6.28;4.70;;;;;20.30;93853.00;;;;7397673;19;20647;-75
2022/08/17 08:25:18;;;;;;;5.63;5.03;;;;;20.10;93863.00;;;;7395163;19;20132;-75
2022/08/17 08:28:33;;;;;;;7.28;5.53;;;;;20.00;93876.00;;;;7396269;19;20155;-75
2022/08/17 08:31:23;;;;;;;6.38;5.85;;;;;19.50;93871.00;;;;7394243;19;20152;-77
2022/08/17 08:34:48;;;;;;;8.65;5.80;;;;;19.20;93878.00;;;;7397239;19;20155;-77
2022/08/17 08:37:48;;;;;;;6.78;6.20;;;;;19.20;93873.00;;;;7392588;19;20143;-77
2022/08/17 08:40:51;;;;;;;7.45;6.75;;;;;19.10;93870.00;;;;7397809;19;20140;-77
2022/08/17 08:43:48;;;;;;;7.47;6.78;;;;;19.20;93891.00;;;;7394979;19;20519;-76
2022/08/17 08:46:52;;;;;;;6.72;6.15;;;;;19.00;93885.00;;;;7396843;19;20144;-75
2022/08/17 08:49:50;;;;;;;7.05;6.35;;;;;18.90;93881.00;;;;7396495;19;20149;-75
2022/08/17 08:52:42;;;;;;;6.57;6.07;;;;;18.80;93877.00;;;;7394681;19;20156;-76
2022/08/17 08:55:35;;;;;;;7.03;6.43;;;;;18.80;93877.00;;;;7395902;19;20163;-76
2022/08/17 08:58:22;;;;;;;9.60;6.18;;;;;18.90;93866.00;;;;7395843;19;20177;-77
2022/08/17 09:01:26;;;;;;;6.75;5.97;;;;;18.90;93874.00;;;;7395844;19;20703;-78
2022/08/17 09:04:27;;;;;;;6.93;5.47;;;;;19.10;93885.00;;;;7394361;19;20153;-79
2022/08/17 09:06:58;;;;;;;6.95;5.97;;;;;19.20;93887.00;;;;7393438;19;20188;-78
2022/08/17 09:09:56;;;;;;;7.05;5.82;;;;;19.30;93893.00;;;;7397810;19;20160;-78
2022/08/17 09:13:08;;;;;;;7.03;5.45;;;;;19.50;93894.00;;;;7392492;19;20152;-77
2022/08/17 09:15:57;;;;;;;7.40;4.93;;;;;19.30;93884.00;;;;7393399;19;20172;-77
2022/08/17 09:18:34;;;;;;;5.43;4.93;;;;;19.30;93864.00;;;;7390379;19;20165;-77
2022/08/17 09:21:53;;;;;;;6.45;5.85;;;;;19.60;93885.00;;;;7392677;19;20208;-76
2022/08/17 09:24:24;;;;;;;5.50;5.00;;;;;19.40;93878.00;;;;7394670;19;20168;-75
2022/08/17 09:27:12;;;;;;;6.53;4.53;;;;;19.40;93891.00;;;;7393480;19;20155;-76
2022/08/17 09:29:56;;;;;;;4.22;3.92;;;;;19.40;93882.00;;;;7393449;19;20629;-76
2022/08/17 09:33:07;;;;;;;6.25;5.40;;;;;19.30;93885.00;;;;7395087;19;20156;-76
2022/08/17 09:35:48;;;;;;;5.93;5.40;;;;;19.20;93882.00;;;;7390202;19;20128;-76
2022/08/17 09:38:30;;;;;;;6.68;5.10;;;;;19.10;93892.00;;;;7388880;19;20182;-76
2022/08/17 09:41:14;;;;;;;7.30;4.88;;;;;19.10;93882.00;;;;7395578;19;20155;-77
2022/08/17 09:44:01;;;;;;;5.88;5.38;;;;;18.90;93899.00;;;;7393865;19;20144;-76
2022/08/17 09:46:56;;;;;;;6.57;5.55;;;;;18.80;93898.00;;;;7394620;19;20152;-76
2022/08/17 09:49:43;;;;;;;7.00;6.20;;;;;18.70;93903.00;;;;7396396;19;20215;-76
2022/08/17 09:52:19;;;;;;;7.45;5.60;;;;;18.60;93904.00;;;;7395293;19;20589;-77
2022/08/17 09:54:57;;;;;;;9.18;5.82;;;;;18.50;93908.00;;;;7394822;19;20129;-77
2022/08/17 09:57:44;;;;;;;8.35;7.18;;;;;18.40;93900.00;;;;7393653;19;20152;-78
2022/08/17 10:00:27;;;;;;;8.40;7.40;;;;;18.40;93902.00;;;;7395759;19;20141;-77
2022/08/17 10:03:10;;;;;;;7.68;6.88;;;;;18.50;93892.00;;;;7395976;19;20171;-77
2022/08/17 10:06:06;;;;;;;8.05;6.68;;;;;18.70;93877.00;;;;7395855;19;20172;-77
2022/08/17 10:09:09;;;;;;;7.45;6.75;;;;;18.70;93891.00;;;;7397513;19;20152;-77
2022/08/17 10:12:21;;;;;;;7.43;6.72;;;;;18.70;93894.00;;;;7394097;19;20153;-75
2022/08/17 10:15:25;;;;;;;7.40;6.53;;;;;18.70;93912.00;;;;7388424;19;20482;-77
2022/08/17 10:18:17;;;;;;;7.00;6.30;;;;;18.60;93909.00;;;;7393299;19;20163;-78
2022/08/17 10:26:11;;;;;;;6.75;6.15;;;;;18.70;93926.00;;;;7396655;19;20608;-78
2022/08/17 10:27:57;;;;;;;7.13;6.15;;;;;18.70;93951.00;;;;7390248;19;20603;-78
2022/08/17 10:31:04;;;;;;;9.45;6.25;;;;;18.80;93947.00;;;;7391205;19;20161;-78
2022/08/17 10:34:40;;;;;;;8.07;5.70;;;;;18.80;93945.00;;;;7390485;19;20137;-78
2022/08/17 10:38:20;;;;;;;5.68;5.15;;;;;18.90;93950.00;;;;7378221;19;20779;-78
2022/08/17 10:41:39;;;;;;;6.07;5.43;;;;;18.90;93952.00;;;;7386083;19;20229;-78
2022/08/17 10:44:26;;;;;;;5.32;4.82;;;;;19.00;93955.00;;;;7383596;19;20147;-77
2022/08/17 10:47:14;;;;;;;6.38;5.00;;;;;19.20;93955.00;;;;7382019;19;20608;-77
2022/08/17 10:49:52;;;;;;;6.68;5.30;;;;;19.30;93954.00;;;;7383718;19;20160;-77
2022/08/17 10:52:26;;;;;;;5.53;4.90;;;;;19.50;93951.00;;;;7384618;19;20514;-77
2022/08/17 10:55:04;;;;;;;5.10;4.60;;;;;19.80;93942.00;;;;7382770;19;20166;-78
2022/08/17 10:57:36;;;;;;;5.13;4.63;;;;;20.20;93947.00;;;;7383985;19;20624;-77
2022/08/17 11:00:39;;;;;;;6.20;4.80;;;;;20.70;93935.00;;;;7387425;19;20144;-77
2022/08/17 11:03:21;;;;;;;5.78;4.95;;;;;21.20;93940.00;;;;7382743;19;20749;-77
2022/08/17 11:06:31;;;;;;;6.47;5.03;;;;;21.20;93934.00;;;;7386176;19;20619;-78
2022/08/17 11:09:18;;;;;;;5.30;4.80;;;;;21.00;93938.00;;;;7390800;19;20137;-77
2022/08/17 11:12:36;;;;;;;5.20;4.70;;;;;20.90;93940.00;;;;7392555;19;20152;-77
2022/08/17 11:15:19;;;;;;;5.35;4.85;;;;;20.60;93929.00;;;;7393366;19;20156;-77
2022/08/17 11:18:06;;;;;;;5.60;4.10;;;;;20.80;93932.00;;;;7392027;19;20635;-77
2022/08/17 11:21:16;;;;;;;6.60;4.40;;;;;21.00;93936.00;;;;7393537;19;20620;-78
2022/08/17 11:24:03;;;;;;;5.00;4.55;;;;;21.10;93935.00;;;;7389825;19;20166;-77
2022/08/17 11:26:34;;;;;;;5.00;4.50;;;;;21.30;93922.00;;;;7393540;19;20157;-77
2022/08/17 11:29:22;;;;;;;6.70;4.53;;;;;21.30;93930.00;;;;7392905;19;20176;-77
2022/08/17 11:32:12;;;;;;;4.45;4.10;;;;;21.30;93934.00;;;;7396003;19;20445;-77
2022/08/17 11:34:48;;;;;;;4.65;4.25;;;;;21.20;93932.00;;;;7395084;19;20655;-78
2022/08/17 11:37:28;;;;;;;4.88;4.20;;;;;21.40;93925.00;;;;7392962;19;20179;-77
2022/08/17 11:40:26;;;;;;;4.53;4.05;;;;;21.20;93930.00;;;;7393072;19;20820;-77
2022/08/17 11:43:09;;;;;;;4.72;4.13;;;;;21.20;93922.00;;;;7394591;19;20591;-76
2022/08/17 11:45:53;;;;;;;4.22;3.80;;;;;21.10;93926.00;;;;7392843;19;20465;-77
2022/08/17 11:52:03;;;;;;;3.90;3.60;;;;;21.10;93903.00;;;;7393241;19;20144;-77
2022/08/17 11:54:36;;;;;;;5.00;3.95;;;;;21.10;93900.00;;;;7396705;19;20141;-77
2022/08/17 11:57:28;;;;;;;5.68;4.28;;;;;21.10;93894.00;;;;7398713;19;20200;-77
2022/08/17 12:00:09;;;;;;;4.97;4.47;;;;;21.10;93887.00;;;;7397546;19;20173;-77
2022/08/17 12:02:47;;;;;;;4.30;4.00;;;;;21.30;93880.00;;;;7397759;19;20709;-78
2022/08/17 12:05:22;;;;;;;5.25;4.40;;;;;21.20;93879.00;;;;7396676;19;20499;-77
2022/08/17 12:08:09;;;;;;;5.05;4.55;;;;;21.20;93872.00;;;;7396695;19;20662;-77
2022/08/17 12:10:56;;;;;;;6.45;4.38;;;;;21.30;93874.00;;;;7398502;19;20148;-78
2022/08/17 12:13:46;;;;;;;5.15;4.65;;;;;21.40;93876.00;;;;7397271;19;20549;-76
2022/08/17 12:16:19;;;;;;;5.22;4.72;;;;;21.40;93878.00;;;;7396574;19;20152;-78
2022/08/17 12:18:58;;;;;;;5.00;4.60;;;;;21.70;93882.00;;;;7394864;19;20667;-77
2022/08/17 12:21:34;;;;;;;5.35;4.43;;;;;21.70;93881.00;;;;7396505;19;20604;-76
2022/08/17 12:24:28;;;;;;;5.15;4.65;;;;;21.50;93892.00;;;;7398330;19;20132;-76
2022/08/17 12:26:59;;;;;;;7.88;4.82;;;;;21.50;93891.00;;;;7398382;19;20607;-74
2022/08/17 12:29:41;;;;;;;5.15;4.65;;;;;21.70;93880.00;;;;7392488;19;20247;-75
2022/08/17 12:32:19;;;;;;;5.18;4.68;;;;;22.00;93872.00;;;;7394708;19;20128;-77
2022/08/17 12:34:53;;;;;;;5.93;4.50;;;;;22.10;93869.00;;;;7397671;19;20140;-76
2022/08/17 12:37:26;;;;;;;5.40;4.95;;;;;22.40;93859.00;;;;7395343;19;20609;-76
2022/08/17 12:40:21;;;;;;;5.63;4.50;;;;;22.90;93850.00;;;;7397068;19;20153;-77
2022/08/17 12:42:59;;;;;;;5.68;5.18;;;;;23.10;93853.00;;;;7399098;19;20137;-79
2022/08/17 12:45:38;;;;;;;8.27;5.07;;;;;23.40;93841.00;;;;7397449;19;20215;-77
2022/08/17 12:48:11;;;;;;;5.53;4.97;;;;;24.00;93841.00;;;;7395567;19;20160;-75
2022/08/17 12:50:48;;;;;;;5.82;5.32;;;;;24.50;93848.00;;;;7396599;19;20203;-74
2022/08/17 12:53:21;;;;;;;5.50;5.00;;;;;24.90;93841.00;;;;7397324;19;20156;-75
2022/08/17 12:56:00;;;;;;;5.47;5.07;;;;;25.50;93843.00;;;;7392786;19;20160;-75
2022/08/17 12:58:36;;;;;;;7.68;4.95;;;;;26.10;93840.00;;;;7393705;19;20143;-74
2022/08/17 13:01:16;;;;;;;5.85;4.55;;;;;26.50;93831.00;;;;7395122;19;20151;-76
2022/08/17 13:03:52;;;;;;;4.95;4.45;;;;;26.80;93834.00;;;;7392283;19;20177;-74
2022/08/17 13:06:34;;;;;;;5.85;3.60;;;;;26.80;93829.00;;;;7395767;19;20137;-74
2022/08/17 13:09:26;;;;;;;3.90;3.60;;;;;26.70;93808.00;;;;7393792;19;20619;-76
2022/08/17 13:12:07;;;;;;;3.55;3.03;;;;;27.00;93807.00;;;;7394675;19;20148;-75
2022/08/17 13:14:35;;;;;;;3.80;3.50;;;;;27.10;93816.00;;;;7393462;19;20190;-75
2022/08/17 13:17:09;;;;;;;3.90;3.60;;;;;26.80;93808.00;;;;7395147;19;20140;-74
2022/08/17 13:19:48;;;;;;;4.10;3.78;;;;;26.50;93810.00;;;;7391586;19;20144;-74
2022/08/17 13:22:24;;;;;;;3.85;3.47;;;;;27.00;93824.00;;;;7393472;19;20145;-75
2022/08/17 13:25:07;;;;;;;5.57;4.28;;;;;26.70;93826.00;;;;7392428;19;20140;-75
2022/08/17 13:27:43;;;;;;;4.55;4.15;;;;;26.60;93823.00;;;;7392485;19;20190;-75
2022/08/17 13:30:18;;;;;;;4.40;3.83;;;;;26.40;93812.00;;;;7390972;19;20156;-74
2022/08/17 13:32:55;;;;;;;4.13;3.78;;;;;26.60;93815.00;;;;7395142;19;20136;-74
2022/08/17 13:35:43;;;;;;;6.18;3.92;;;;;27.10;93818.00;;;;7394352;19;20139;-75
2022/08/17 13:38:39;;;;;;;4.03;3.72;;;;;26.90;93824.00;;;;7392041;19;20141;-74
2022/08/17 13:41:07;;;;;;;5.00;3.65;;;;;26.60;93831.00;;;;7391683;19;20155;-73
2022/08/17 13:43:49;;;;;;;3.90;3.60;;;;;26.60;93818.00;;;;7394098;19;20135;-74
2022/08/17 13:46:21;;;;;;;4.97;3.78;;;;;26.70;93814.00;;;;7395345;19;20157;-75
2022/08/17 13:49:19;;;;;;;6.28;4.22;;;;;26.90;93830.00;;;;7389938;19;20181;-76
2022/08/17 13:52:40;;;;;;;5.25;4.20;;;;;26.30;93811.00;;;;7393320;19;20140;-75
2022/08/17 13:55:21;;;;;;;4.30;4.00;;;;;26.20;93803.00;;;;7390290;19;20156;-74
2022/08/17 13:57:52;;;;;;;4.53;4.13;;;;;26.20;93807.00;;;;7391253;19;20655;-74